Time;durP1;ratioP1;P1;durP2;ratioP2;P2;SDS_P1;SDS_P2;PMS_P1;PMS_P2;Temp;Humidity;BMP_temperature;BMP_pressure;BME280_temperature;BME280_humidity;BME280_pressure;Samples;Min_cycle;Max_cycle;Signal;HPM_P1;HPM_P2
2022/09/18 00:00:09;;;;;;;;;;;;;;;;;;5082931;28;20001;-62
2022/09/18 00:02:37;;;;;;;;;;;;;;;;;;5076487;28;19928;-62
2022/09/18 00:05:02;;;;;;;;;;;;;;;;;;5081959;28;20299;-62
2022/09/18 00:07:27;;;;;;;;;;;;;;;;;;5080588;28;19920;-62
2022/09/18 00:09:53;;;;;;;;;;;;;;;;;;5069802;28;19916;-62
2022/09/18 00:12:18;;;;;;;;;;;;;;;;;;5080313;28;20275;-61
2022/09/18 00:14:43;;;;;;;;;;;;;;;;;;5079945;28;19919;-61
2022/09/18 00:17:08;;;;;;;;;;;;;;;;;;5083166;28;19959;-62
2022/09/18 00:19:34;;;;;;;;;;;;;;;;;;5067832;28;19924;-62
2022/09/18 00:21:59;;;;;;;;;;;;;;;;;;5083499;28;20404;-61
2022/09/18 00:24:24;;;;;;;;;;;;;;;;;;5082142;28;19978;-62
2022/09/18 00:26:49;;;;;;;;;;;;;;;;;;5081976;28;19923;-62
2022/09/18 00:29:15;;;;;;;;;;;;;;;;;;5066770;28;19966;-62
2022/09/18 00:31:41;;;;;;;;;;;;;;;;;;5080791;28;19997;-62
2022/09/18 00:34:06;;;;;;;;;;;;;;;;;;5081661;28;19916;-62
2022/09/18 00:36:31;;;;;;;;;;;;;;;;;;5065526;28;20385;-62
2022/09/18 00:38:58;;;;;;;;;;;;;;;;;;5066021;28;20505;-62
2022/09/18 00:41:23;;;;;;;;;;;;;;;;;;5079792;28;19924;-62
2022/09/18 00:43:48;;;;;;;;;;;;;;;;;;5079845;28;19921;-62
2022/09/18 00:46:13;;;;;;;;;;;;;;;;;;5082043;28;19916;-62
2022/09/18 00:48:39;;;;;;;;;;;;;;;;;;5083068;28;19968;-61
2022/09/18 00:51:04;;;;;;;;;;;;;;;;;;5082006;28;19916;-62
2022/09/18 00:53:29;;;;;;;;;;;;;;;;;;5080803;28;20004;-62
2022/09/18 00:55:55;;;;;;;;;;;;;;;;;;5046827;28;19923;-62
2022/09/18 00:58:20;;;;;;;;;;;;;;;;;;5084781;28;19932;-62
2022/09/18 01:00:45;;;;;;;;;;;;;;;;;;5065735;28;20650;-63
2022/09/18 01:03:10;;;;;;;;;;;;;;;;;;5081917;28;20385;-62
2022/09/18 01:05:36;;;;;;;;;;;;;;;;;;5082806;28;20540;-63
2022/09/18 01:08:01;;;;;;;;;;;;;;;;;;5082664;28;19916;-63
2022/09/18 01:10:26;;;;;;;;;;;;;;;;;;5080994;28;20058;-62
2022/09/18 01:12:52;;;;;;;;;;;;;;;;;;5081315;28;19923;-62
2022/09/18 01:15:17;;;;;;;;;;;;;;;;;;5080732;28;19920;-62
2022/09/18 01:17:42;;;;;;;;;;;;;;;;;;5081664;28;19953;-62
2022/09/18 01:20:07;;;;;;;;;;;;;;;;;;5083878;28;19988;-62
2022/09/18 01:22:33;;;;;;;;;;;;;;;;;;5080206;28;19924;-62
2022/09/18 01:24:58;;;;;;;;;;;;;;;;;;5066999;28;19923;-62
2022/09/18 01:27:23;;;;;;;;;;;;;;;;;;5078139;28;19930;-62
2022/09/18 01:29:48;;;;;;;;;;;;;;;;;;5079899;28;20317;-61
2022/09/18 01:32:13;;;;;;;;;;;;;;;;;;5081950;28;20537;-61
2022/09/18 01:34:39;;;;;;;;;;;;;;;;;;5087272;28;19946;-61
2022/09/18 01:37:04;;;;;;;;;;;;;;;;;;5085357;28;19922;-61
2022/09/18 01:39:29;;;;;;;;;;;;;;;;;;5085276;28;19916;-61
2022/09/18 01:41:54;;;;;;;;;;;;;;;;;;5080665;28;19924;-61
2022/09/18 01:44:20;;;;;;;;;;;;;;;;;;5081868;28;19992;-61
2022/09/18 01:46:45;;;;;;;;;;;;;;;;;;5067336;28;20162;-61
2022/09/18 01:49:10;;;;;;;;;;;;;;;;;;5079857;28;20357;-61
2022/09/18 01:51:39;;;;;;;;;;;;;;;;;;5062831;28;20558;-60
2022/09/18 01:54:05;;;;;;;;;;;;;;;;;;5065138;28;20450;-61
2022/09/18 01:56:30;;;;;;;;;;;;;;;;;;5086311;28;19960;-61
2022/09/18 01:58:55;;;;;;;;;;;;;;;;;;5067872;28;19964;-61
2022/09/18 02:01:22;;;;;;;;;;;;;;;;;;5066296;28;20410;-61
2022/09/18 02:03:47;;;;;;;;;;;;;;;;;;5065661;28;19916;-61
2022/09/18 02:06:12;;;;;;;;;;;;;;;;;;5088019;28;19955;-61
2022/09/18 02:08:38;;;;;;;;;;;;;;;;;;5065886;28;19912;-61
2022/09/18 02:11:05;;;;;;;;;;;;;;;;;;5083207;28;19931;-61
2022/09/18 02:13:30;;;;;;;;;;;;;;;;;;5069754;28;20005;-61
2022/09/18 02:15:55;;;;;;;;;;;;;;;;;;5085328;28;19919;-61
2022/09/18 02:18:21;;;;;;;;;;;;;;;;;;5084631;28;19924;-61
2022/09/18 02:20:46;;;;;;;;;;;;;;;;;;5081583;28;20030;-61
2022/09/18 02:23:11;;;;;;;;;;;;;;;;;;5085013;28;19923;-61
2022/09/18 02:25:36;;;;;;;;;;;;;;;;;;5083408;28;19960;-61
2022/09/18 02:28:01;;;;;;;;;;;;;;;;;;5081774;28;19923;-61
2022/09/18 02:30:26;;;;;;;;;;;;;;;;;;5083141;28;19916;-61
2022/09/18 02:32:52;;;;;;;;;;;;;;;;;;5067046;28;19955;-61
2022/09/18 02:35:17;;;;;;;;;;;;;;;;;;5089655;28;19916;-61
2022/09/18 02:37:42;;;;;;;;;;;;;;;;;;5088043;28;19950;-61
2022/09/18 02:40:08;;;;;;;;;;;;;;;;;;5082837;28;20921;-62
2022/09/18 02:42:34;;;;;;;;;;;;;;;;;;5070350;28;19945;-61
2022/09/18 02:44:59;;;;;;;;;;;;;;;;;;5080206;28;19956;-61
2022/09/18 02:47:25;;;;;;;;;;;;;;;;;;5069276;28;19922;-61
2022/09/18 02:49:50;;;;;;;;;;;;;;;;;;5084773;28;20338;-61
2022/09/18 02:52:15;;;;;;;;;;;;;;;;;;5070633;28;19916;-61
2022/09/18 02:54:41;;;;;;;;;;;;;;;;;;5084784;28;19959;-62
2022/09/18 02:57:07;;;;;;;;;;;;;;;;;;5082314;28;19916;-62
2022/09/18 02:59:32;;;;;;;;;;;;;;;;;;5065330;28;19958;-62
2022/09/18 03:01:57;;;;;;;;;;;;;;;;;;5066231;28;20014;-61
2022/09/18 03:04:23;;;;;;;;;;;;;;;;;;5087315;28;19915;-61
2022/09/18 03:07:15;;;;;;;;;;;;;;;;;;5070567;28;19916;-60
2022/09/18 03:09:41;;;;;;;;;;;;;;;;;;5065101;28;19926;-60
2022/09/18 03:12:07;;;;;;;;;;;;;;;;;;5069857;28;20304;-61
2022/09/18 03:14:36;;;;;;;;;;;;;;;;;;5079818;28;19916;-61
2022/09/18 03:17:01;;;;;;;;;;;;;;;;;;5085384;28;19982;-61
2022/09/18 03:19:26;;;;;;;;;;;;;;;;;;5042003;28;20006;-61
2022/09/18 03:21:53;;;;;;;;;;;;;;;;;;5065418;28;20420;-61
2022/09/18 03:24:20;;;;;;;;;;;;;;;;;;5067779;28;19927;-61
2022/09/18 03:26:46;;;;;;;;;;;;;;;;;;5044194;28;19920;-61
2022/09/18 03:29:12;;;;;;;;;;;;;;;;;;5086326;28;19916;-61
2022/09/18 03:31:39;;;;;;;;;;;;;;;;;;5086245;28;19920;-61
2022/09/18 03:34:04;;;;;;;;;;;;;;;;;;5069864;28;19916;-60
2022/09/18 03:36:30;;;;;;;;;;;;;;;;;;5066567;28;19920;-61
2022/09/18 03:38:55;;;;;;;;;;;;;;;;;;5064855;28;19916;-60
2022/09/18 03:41:21;;;;;;;;;;;;;;;;;;5065321;28;19950;-60
2022/09/18 03:43:46;;;;;;;;;;;;;;;;;;5063043;28;19927;-60
2022/09/18 03:46:12;;;;;;;;;;;;;;;;;;5084023;28;19916;-60
2022/09/18 03:48:37;;;;;;;;;;;;;;;;;;5085522;28;20475;-60
2022/09/18 03:51:02;;;;;;;;;;;;;;;;;;5063996;28;20519;-60
2022/09/18 03:53:28;;;;;;;;;;;;;;;;;;5085478;28;20388;-60
2022/09/18 03:56:29;;;;;;;;;;;;;;;;;;5002132;28;19975;-60
2022/09/18 03:59:04;;;;;;;;;;;;;;;;;;5070563;28;20371;-60
2022/09/18 04:01:52;;;;;;;;;;;;;;;;;;5071618;28;19994;-60
2022/09/18 04:04:26;;;;;;;;;;;;;;;;;;5083391;28;19931;-60
2022/09/18 04:07:17;;;;;;;;;;;;;;;;;;5083144;28;20107;-60
2022/09/18 04:10:01;;;;;;;;;;;;;;;;;;5083681;28;19973;-60
2022/09/18 04:12:26;;;;;;;;;;;;;;;;;;5082639;28;19919;-60
2022/09/18 04:15:06;;;;;;;;;;;;;;;;;;5067779;28;19931;-59
2022/09/18 04:17:31;;;;;;;;;;;;;;;;;;5081032;28;19927;-59
2022/09/18 04:19:56;;;;;;;;;;;;;;;;;;5063381;28;19920;-60
2022/09/18 04:22:21;;;;;;;;;;;;;;;;;;5062686;28;20440;-59
2022/09/18 04:24:46;;;;;;;;;;;;;;;;;;5081304;28;19985;-59
2022/09/18 04:27:12;;;;;;;;;;;;;;;;;;5080130;28;19916;-58
2022/09/18 04:29:37;;;;;;;;;;;;;;;;;;5066566;28;19912;-59
2022/09/18 04:32:04;;;;;;;;;;;;;;;;;;5064454;28;20657;-59
2022/09/18 04:34:29;;;;;;;;;;;;;;;;;;5052436;28;20332;-59
2022/09/18 04:36:54;;;;;;;;;;;;;;;;;;5081468;28;19916;-60
2022/09/18 04:39:20;;;;;;;;;;;;;;;;;;5080767;28;19971;-59
2022/09/18 04:41:46;;;;;;;;;;;;;;;;;;5081069;28;19924;-59
2022/09/18 04:44:12;;;;;;;;;;;;;;;;;;5084493;28;19916;-59
2022/09/18 04:46:37;;;;;;;;;;;;;;;;;;5068003;28;20373;-59
2022/09/18 04:49:03;;;;;;;;;;;;;;;;;;5080857;28;20343;-59
2022/09/18 04:51:28;;;;;;;;;;;;;;;;;;5079922;28;19956;-59
2022/09/18 04:53:54;;;;;;;;;;;;;;;;;;5083542;28;20783;-59
2022/09/18 04:56:20;;;;;;;;;;;;;;;;;;5064563;28;19916;-59
2022/09/18 04:58:48;;;;;;;;;;;;;;;;;;5066592;28;19916;-59
2022/09/18 05:01:13;;;;;;;;;;;;;;;;;;5083925;28;19931;-60
2022/09/18 05:03:40;;;;;;;;;;;;;;;;;;5082038;28;20432;-60
2022/09/18 05:06:07;;;;;;;;;;;;;;;;;;5078439;28;19922;-60
2022/09/18 05:08:33;;;;;;;;;;;;;;;;;;5063901;28;19916;-60
2022/09/18 05:10:59;;;;;;;;;;;;;;;;;;5062975;28;19916;-60
2022/09/18 05:13:26;;;;;;;;;;;;;;;;;;5059709;28;19920;-60
2022/09/18 05:16:05;;;;;;;;;;;;;;;;;;5079351;28;19920;-60
2022/09/18 05:18:31;;;;;;;;;;;;;;;;;;5065854;28;19922;-58
2022/09/18 05:20:59;;;;;;;;;;;;;;;;;;5077778;28;20089;-58
2022/09/18 05:23:24;;;;;;;;;;;;;;;;;;5084300;28;20310;-58
2022/09/18 05:25:49;;;;;;;;;;;;;;;;;;5067939;28;19912;-59
2022/09/18 05:28:18;;;;;;;;;;;;;;;;;;5084773;28;19923;-59
2022/09/18 05:30:45;;;;;;;;;;;;;;;;;;5063597;28;19923;-58
2022/09/18 05:33:11;;;;;;;;;;;;;;;;;;5073922;28;19920;-58
2022/09/18 05:35:38;;;;;;;;;;;;;;;;;;5087248;28;20006;-61
2022/09/18 05:38:03;;;;;;;;;;;;;;;;;;5086107;28;20400;-59
2022/09/18 05:40:29;;;;;;;;;;;;;;;;;;5067584;28;20020;-59
2022/09/18 05:42:56;;;;;;;;;;;;;;;;;;5065024;28;20015;-59
2022/09/18 05:45:22;;;;;;;;;;;;;;;;;;5067061;28;20014;-59
2022/09/18 05:47:47;;;;;;;;;;;;;;;;;;5086725;28;20035;-58
2022/09/18 05:50:13;;;;;;;;;;;;;;;;;;5070132;28;19912;-59
2022/09/18 05:52:38;;;;;;;;;;;;;;;;;;5082674;28;20027;-59
2022/09/18 05:55:04;;;;;;;;;;;;;;;;;;5083656;28;19916;-58
2022/09/18 05:57:29;;;;;;;;;;;;;;;;;;5083730;28;19927;-58
2022/09/18 05:59:55;;;;;;;;;;;;;;;;;;5066279;28;20447;-59
2022/09/18 06:02:20;;;;;;;;;;;;;;;;;;5072434;28;20764;-59
2022/09/18 06:04:56;;;;;;;;;;;;;;;;;;5068790;28;20118;-59
2022/09/18 06:07:22;;;;;;;;;;;;;;;;;;5065421;28;20364;-59
2022/09/18 06:09:47;;;;;;;;;;;;;;;;;;5066688;28;20025;-59
2022/09/18 06:12:12;;;;;;;;;;;;;;;;;;5067042;28;19959;-59
2022/09/18 06:14:37;;;;;;;;;;;;;;;;;;5087219;28;19912;-59
2022/09/18 06:17:02;;;;;;;;;;;;;;;;;;5066839;28;19954;-59
2022/09/18 06:19:28;;;;;;;;;;;;;;;;;;5069472;28;19920;-59
2022/09/18 06:21:53;;;;;;;;;;;;;;;;;;5082054;28;19931;-59
2022/09/18 06:24:19;;;;;;;;;;;;;;;;;;5066176;28;20003;-60
2022/09/18 06:26:52;;;;;;;;;;;;;;;;;;5087366;28;19923;-59
2022/09/18 06:29:20;;;;;;;;;;;;;;;;;;5068826;28;19916;-60
2022/09/18 06:31:49;;;;;;;;;;;;;;;;;;5082010;28;19916;-59
2022/09/18 06:34:19;;;;;;;;;;;;;;;;;;5086909;28;19912;-59
2022/09/18 06:36:45;;;;;;;;;;;;;;;;;;5087011;28;19977;-59
2022/09/18 06:39:23;;;;;;;;;;;;;;;;;;5083448;28;19916;-60
2022/09/18 06:41:52;;;;;;;;;;;;;;;;;;5082657;28;19928;-60
2022/09/18 06:44:24;;;;;;;;;;;;;;;;;;5081192;28;19923;-60
2022/09/18 06:47:01;;;;;;;;;;;;;;;;;;5066107;28;19967;-59
2022/09/18 06:49:34;;;;;;;;;;;;;;;;;;5082527;28;19946;-60
2022/09/18 06:51:59;;;;;;;;;;;;;;;;;;5068253;28;19920;-60
2022/09/18 06:54:24;;;;;;;;;;;;;;;;;;5064509;28;19916;-59
2022/09/18 06:56:49;;;;;;;;;;;;;;;;;;5071604;28;19916;-59
2022/09/18 06:59:17;;;;;;;;;;;;;;;;;;5065148;28;19916;-59
2022/09/18 07:01:42;;;;;;;;;;;;;;;;;;5086471;28;19930;-58
2022/09/18 07:04:18;;;;;;;;;;;;;;;;;;5068499;28;19923;-59
2022/09/18 07:06:44;;;;;;;;;;;;;;;;;;5083164;28;19916;-59
2022/09/18 07:09:09;;;;;;;;;;;;;;;;;;5080079;28;19922;-59
2022/09/18 07:11:58;;;;;;;;;;;;;;;;;;5073268;28;20020;-59
2022/09/18 07:14:32;;;;;;;;;;;;;;;;;;5081760;28;20376;-59
2022/09/18 07:17:06;;;;;;;;;;;;;;;;;;5082428;28;20015;-59
2022/09/18 07:19:31;;;;;;;;;;;;;;;;;;5066022;28;20010;-59
2022/09/18 07:21:57;;;;;;;;;;;;;;;;;;5081018;28;19931;-58
2022/09/18 07:24:23;;;;;;;;;;;;;;;;;;5065354;28;19916;-59
2022/09/18 07:26:48;;;;;;;;;;;;;;;;;;5066941;28;19922;-59
2022/09/18 07:29:13;;;;;;;;;;;;;;;;;;5080930;28;19916;-59
2022/09/18 07:31:38;;;;;;;;;;;;;;;;;;5084199;28;20011;-59
2022/09/18 07:34:08;;;;;;;;;;;;;;;;;;5065833;28;19916;-59
2022/09/18 07:36:34;;;;;;;;;;;;;;;;;;5071932;28;20680;-63
2022/09/18 07:38:59;;;;;;;;;;;;;;;;;;5079090;28;19916;-59
2022/09/18 07:41:31;;;;;;;;;;;;;;;;;;5065343;28;20412;-59
2022/09/18 07:43:56;;;;;;;;;;;;;;;;;;5081808;28;19923;-59
2022/09/18 07:46:22;;;;;;;;;;;;;;;;;;5063514;28;19916;-59
2022/09/18 07:48:50;;;;;;;;;;;;;;;;;;5063681;28;19916;-60
2022/09/18 07:51:20;;;;;;;;;;;;;;;;;;5069427;28;19916;-60
2022/09/18 07:53:47;;;;;;;;;;;;;;;;;;5079688;28;19916;-60
2022/09/18 07:56:18;;;;;;;;;;;;;;;;;;5065349;28;19916;-60
2022/09/18 07:58:43;;;;;;;;;;;;;;;;;;5063697;28;20471;-60
2022/09/18 08:01:13;;;;;;;;;;;;;;;;;;5064235;28;19923;-60
2022/09/18 08:03:45;;;;;;;;;;;;;;;;;;5079769;28;20023;-60
2022/09/18 08:06:10;;;;;;;;;;;;;;;;;;5082060;28;20398;-60
2022/09/18 08:08:39;;;;;;;;;;;;;;;;;;5079931;28;21495;-60
2022/09/18 08:11:27;;;;;;;;;;;;;;;;;;5082354;28;19969;-61
2022/09/18 08:13:54;;;;;;;;;;;;;;;;;;5085059;28;19977;-61
2022/09/18 08:16:33;;;;;;;;;;;;;;;;;;5078474;28;19919;-61
2022/09/18 08:19:14;;;;;;;;;;;;;;;;;;5068232;28;19916;-61
2022/09/18 08:21:46;;;;;;;;;;;;;;;;;;5082977;28;19920;-61
2022/09/18 08:24:15;;;;;;;;;;;;;;;;;;5047540;28;19916;-61
2022/09/18 08:26:42;;;;;;;;;;;;;;;;;;5063864;28;19937;-61
2022/09/18 08:29:07;;;;;;;;;;;;;;;;;;5063610;28;19915;-60
2022/09/18 08:31:34;;;;;;;;;;;;;;;;;;5084589;28;20447;-61
2022/09/18 08:34:01;;;;;;;;;;;;;;;;;;5067220;28;19920;-61
2022/09/18 08:36:27;;;;;;;;;;;;;;;;;;5066822;28;19916;-61
2022/09/18 08:38:57;;;;;;;;;;;;;;;;;;5061868;28;19993;-61
2022/09/18 08:41:41;;;;;;;;;;;;;;;;;;5083407;28;19931;-61
2022/09/18 08:44:06;;;;;;;;;;;;;;;;;;5063416;28;19916;-61
2022/09/18 08:46:34;;;;;;;;;;;;;;;;;;5068071;28;19916;-61
2022/09/18 08:49:01;;;;;;;;;;;;;;;;;;5081414;28;19968;-61
2022/09/18 08:51:27;;;;;;;;;;;;;;;;;;5080605;28;20330;-61
2022/09/18 08:53:54;;;;;;;;;;;;;;;;;;5078917;28;19938;-61
2022/09/18 08:56:25;;;;;;;;;;;;;;;;;;5082559;28;19920;-61
2022/09/18 08:59:11;;;;;;;;;;;;;;;;;;5063266;28;20226;-61
2022/09/18 09:01:36;;;;;;;;;;;;;;;;;;5080060;28;19931;-61
2022/09/18 09:04:05;;;;;;;;;;;;;;;;;;5066385;28;19923;-61
2022/09/18 09:06:31;;;;;;;;;;;;;;;;;;5086524;28;19916;-61
2022/09/18 09:08:56;;;;;;;;;;;;;;;;;;5085493;28;19916;-61
2022/09/18 09:11:22;;;;;;;;;;;;;;;;;;5071632;28;19916;-61
2022/09/18 09:13:48;;;;;;;;;;;;;;;;;;5087154;28;19939;-61
2022/09/18 09:16:15;;;;;;;;;;;;;;;;;;5065818;28;20093;-62
2022/09/18 09:18:40;;;;;;;;;;;;;;;;;;5067798;28;19920;-61
2022/09/18 09:21:06;;;;;;;;;;;;;;;;;;5070361;28;20401;-61
2022/09/18 09:23:32;;;;;;;;;;;;;;;;;;5086758;28;19953;-62
2022/09/18 09:25:58;;;;;;;;;;;;;;;;;;5069469;28;19923;-62
2022/09/18 09:28:30;;;;;;;;;;;;;;;;;;5084461;28;19920;-62
2022/09/18 09:31:34;;;;;;;;;;;;;;;;;;5067671;28;19977;-62
2022/09/18 09:34:35;;;;;;;;;;;;;;;;;;5069873;28;19962;-62
2022/09/18 09:37:11;;;;;;;;;;;;;;;;;;5068279;28;20005;-62
2022/09/18 09:39:38;;;;;;;;;;;;;;;;;;5070243;28;19932;-62
2022/09/18 09:42:04;;;;;;;;;;;;;;;;;;5064025;28;20380;-61
2022/09/18 09:44:29;;;;;;;;;;;;;;;;;;5064398;28;19979;-61
2022/09/18 09:46:55;;;;;;;;;;;;;;;;;;5056642;28;20034;-62
2022/09/18 09:49:20;;;;;;;;;;;;;;;;;;5071404;28;19916;-62
2022/09/18 09:51:46;;;;;;;;;;;;;;;;;;5065684;28;19916;-61
2022/09/18 09:54:11;;;;;;;;;;;;;;;;;;5039311;28;20022;-61
2022/09/18 09:56:37;;;;;;;;;;;;;;;;;;5058624;28;20467;-61
2022/09/18 09:59:04;;;;;;;;;;;;;;;;;;5080762;28;19923;-62
2022/09/18 10:01:30;;;;;;;;;;;;;;;;;;5066899;28;19932;-61
2022/09/18 10:03:55;;;;;;;;;;;;;;;;;;5062985;28;19923;-61
2022/09/18 10:06:23;;;;;;;;;;;;;;;;;;5070659;28;19916;-61
2022/09/18 10:08:49;;;;;;;;;;;;;;;;;;5042330;28;19923;-61
2022/09/18 10:11:14;;;;;;;;;;;;;;;;;;5065337;28;20218;-62
2022/09/18 10:13:44;;;;;;;;;;;;;;;;;;5078320;28;19966;-62
2022/09/18 10:16:10;;;;;;;;;;;;;;;;;;5069467;28;19963;-62
2022/09/18 10:18:38;;;;;;;;;;;;;;;;;;5078412;28;19970;-62
2022/09/18 10:21:03;;;;;;;;;;;;;;;;;;5078757;28;19916;-62
2022/09/18 10:23:28;;;;;;;;;;;;;;;;;;5066472;28;19920;-61
2022/09/18 10:25:55;;;;;;;;;;;;;;;;;;5078374;28;19916;-63
2022/09/18 10:28:24;;;;;;;;;;;;;;;;;;5060249;28;19998;-63
2022/09/18 10:30:49;;;;;;;;;;;;;;;;;;5056927;28;20323;-63
2022/09/18 10:33:15;;;;;;;;;;;;;;;;;;5076242;28;19962;-63
2022/09/18 10:35:41;;;;;;;;;;;;;;;;;;5081794;28;19959;-63
2022/09/18 10:38:07;;;;;;;;;;;;;;;;;;5055421;28;19920;-61
2022/09/18 10:40:36;;;;;;;;;;;;;;;;;;5062699;28;19929;-61
2022/09/18 10:43:03;;;;;;;;;;;;;;;;;;5075221;28;19935;-61
2022/09/18 10:45:28;;;;;;;;;;;;;;;;;;5057737;28;19920;-61
2022/09/18 10:48:02;;;;;;;;;;;;;;;;;;5061543;28;19959;-61
2022/09/18 10:50:28;;;;;;;;;;;;;;;;;;5057208;28;19920;-62
2022/09/18 10:52:53;;;;;;;;;;;;;;;;;;5069517;28;20249;-61
2022/09/18 10:55:23;;;;;;;;;;;;;;;;;;5062745;28;19947;-61
2022/09/18 10:57:53;;;;;;;;;;;;;;;;;;5074670;28;19916;-61
2022/09/18 11:00:19;;;;;;;;;;;;;;;;;;5064923;28;19916;-63
2022/09/18 11:02:46;;;;;;;;;;;;;;;;;;5073158;28;19924;-62
2022/09/18 11:05:11;;;;;;;;;;;;;;;;;;5073819;28;19916;-62
2022/09/18 11:07:38;;;;;;;;;;;;;;;;;;5063718;28;20407;-61
2022/09/18 11:10:05;;;;;;;;;;;;;;;;;;5052989;28;19974;-61
2022/09/18 11:12:31;;;;;;;;;;;;;;;;;;5074515;28;20254;-62
2022/09/18 11:14:56;;;;;;;;;;;;;;;;;;5071904;28;20290;-62
2022/09/18 11:17:22;;;;;;;;;;;;;;;;;;5076187;28;20498;-61
2022/09/18 11:19:47;;;;;;;;;;;;;;;;;;5044118;28;19916;-62
2022/09/18 11:22:36;;;;;;;;;;;;;;;;;;5056764;28;19924;-62
2022/09/18 11:25:06;;;;;;;;;;;;;;;;;;5079086;28;20424;-61
2022/09/18 11:27:31;;;;;;;;;;;;;;;;;;5071211;28;20213;-61
2022/09/18 11:29:58;;;;;;;;;;;;;;;;;;5069481;28;19915;-62
2022/09/18 11:32:26;;;;;;;;;;;;;;;;;;5079940;28;20332;-61
2022/09/18 11:34:56;;;;;;;;;;;;;;;;;;5068982;28;19923;-61
2022/09/18 11:37:25;;;;;;;;;;;;;;;;;;5062618;28;20377;-62
2022/09/18 11:39:50;;;;;;;;;;;;;;;;;;5069069;28;19975;-61
2022/09/18 11:42:15;;;;;;;;;;;;;;;;;;5052067;28;20023;-62
2022/09/18 11:44:42;;;;;;;;;;;;;;;;;;5062074;28;19975;-61
2022/09/18 11:47:07;;;;;;;;;;;;;;;;;;5057464;28;20233;-61
2022/09/18 11:49:32;;;;;;;;;;;;;;;;;;5076893;28;20277;-61
2022/09/18 11:51:59;;;;;;;;;;;;;;;;;;5066947;28;20464;-62
2022/09/18 11:54:32;;;;;;;;;;;;;;;;;;5048236;28;19971;-62
2022/09/18 11:56:58;;;;;;;;;;;;;;;;;;5078379;28;20007;-61
2022/09/18 11:59:25;;;;;;;;;;;;;;;;;;5053863;28;19960;-62
2022/09/18 12:01:50;;;;;;;;;;;;;;;;;;5072068;28;19924;-62
2022/09/18 12:04:17;;;;;;;;;;;;;;;;;;5057319;28;20339;-61
2022/09/18 12:06:42;;;;;;;;;;;;;;;;;;5038000;28;19926;-61
2022/09/18 12:09:08;;;;;;;;;;;;;;;;;;5062316;28;19941;-62
2022/09/18 12:11:34;;;;;;;;;;;;;;;;;;5059091;28;19916;-61
2022/09/18 12:13:59;;;;;;;;;;;;;;;;;;5050361;28;20265;-62
2022/09/18 12:16:25;;;;;;;;;;;;;;;;;;5065543;28;19920;-61
2022/09/18 12:18:51;;;;;;;;;;;;;;;;;;5075783;28;20015;-61
2022/09/18 12:21:16;;;;;;;;;;;;;;;;;;5076483;28;19923;-62
2022/09/18 12:23:42;;;;;;;;;;;;;;;;;;5053351;28;19923;-62
2022/09/18 12:26:08;;;;;;;;;;;;;;;;;;5073172;28;19924;-61
2022/09/18 12:28:36;;;;;;;;;;;;;;;;;;5076854;28;19922;-62
2022/09/18 12:31:01;;;;;;;;;;;;;;;;;;5051188;28;19920;-62
2022/09/18 12:33:27;;;;;;;;;;;;;;;;;;5076162;28;19916;-63
2022/09/18 12:35:52;;;;;;;;;;;;;;;;;;5072972;28;19920;-63
2022/09/18 12:38:17;;;;;;;;;;;;;;;;;;5071117;28;19920;-62
2022/09/18 12:40:42;;;;;;;;;;;;;;;;;;5078063;28;19966;-63
2022/09/18 12:43:07;;;;;;;;;;;;;;;;;;5069595;28;19924;-65
2022/09/18 12:45:33;;;;;;;;;;;;;;;;;;5078038;28;19963;-63
2022/09/18 12:48:00;;;;;;;;;;;;;;;;;;5072083;28;20441;-62
2022/09/18 12:50:25;;;;;;;;;;;;;;;;;;5071695;28;19994;-63
2022/09/18 12:52:50;;;;;;;;;;;;;;;;;;5078454;28;20323;-63
2022/09/18 12:55:15;;;;;;;;;;;;;;;;;;5074643;28;19923;-63
2022/09/18 12:57:41;;;;;;;;;;;;;;;;;;5061873;28;19916;-63
2022/09/18 13:00:08;;;;;;;;;;;;;;;;;;5071852;28;19916;-62
2022/09/18 13:02:33;;;;;;;;;;;;;;;;;;5072941;28;19924;-63
2022/09/18 13:04:58;;;;;;;;;;;;;;;;;;5079744;28;19927;-63
2022/09/18 13:07:23;;;;;;;;;;;;;;;;;;5054508;28;19920;-63
2022/09/18 13:09:49;;;;;;;;;;;;;;;;;;5078142;28;19913;-63
2022/09/18 13:12:14;;;;;;;;;;;;;;;;;;5073002;28;19916;-63
2022/09/18 13:14:39;;;;;;;;;;;;;;;;;;5071431;28;20370;-63
2022/09/18 13:17:04;;;;;;;;;;;;;;;;;;5080254;28;20232;-63
2022/09/18 13:19:29;;;;;;;;;;;;;;;;;;5072377;28;19916;-63
2022/09/18 13:21:55;;;;;;;;;;;;;;;;;;5079383;28;19924;-63
2022/09/18 13:24:20;;;;;;;;;;;;;;;;;;5070603;28;19928;-63
2022/09/18 13:26:46;;;;;;;;;;;;;;;;;;5070683;28;20974;-63
2022/09/18 13:29:11;;;;;;;;;;;;;;;;;;5078206;28;20469;-63
2022/09/18 13:31:36;;;;;;;;;;;;;;;;;;5071887;28;20485;-63
2022/09/18 13:34:03;;;;;;;;;;;;;;;;;;5078126;28;20383;-63
2022/09/18 13:36:28;;;;;;;;;;;;;;;;;;5071466;28;19923;-63
2022/09/18 13:38:53;;;;;;;;;;;;;;;;;;5070375;28;19916;-63
2022/09/18 13:41:18;;;;;;;;;;;;;;;;;;5078697;28;20504;-63
2022/09/18 13:43:43;;;;;;;;;;;;;;;;;;5074553;28;19916;-63
2022/09/18 13:46:09;;;;;;;;;;;;;;;;;;5079669;28;20368;-63
2022/09/18 13:48:34;;;;;;;;;;;;;;;;;;5073959;28;19962;-62
2022/09/18 13:50:59;;;;;;;;;;;;;;;;;;5070478;28;20404;-62
2022/09/18 13:53:24;;;;;;;;;;;;;;;;;;5080051;28;19943;-63
2022/09/18 13:55:50;;;;;;;;;;;;;;;;;;5077409;28;19920;-63
2022/09/18 13:58:15;;;;;;;;;;;;;;;;;;5066676;28;20006;-63
2022/09/18 14:00:40;;;;;;;;;;;;;;;;;;5075169;28;19916;-63
2022/09/18 14:03:05;;;;;;;;;;;;;;;;;;5041955;28;19924;-63
2022/09/18 14:05:31;;;;;;;;;;;;;;;;;;5065737;28;19947;-63
2022/09/18 14:07:56;;;;;;;;;;;;;;;;;;5075721;28;20292;-63
2022/09/18 14:10:21;;;;;;;;;;;;;;;;;;5081363;28;19917;-65
2022/09/18 14:12:46;;;;;;;;;;;;;;;;;;5046255;28;20053;-63
2022/09/18 14:15:12;;;;;;;;;;;;;;;;;;5061122;28;19941;-63
2022/09/18 14:17:37;;;;;;;;;;;;;;;;;;5070013;28;19994;-63
2022/09/18 14:20:08;;;;;;;;;;;;;;;;;;5062442;28;19920;-64
2022/09/18 14:22:36;;;;;;;;;;;;;;;;;;5082446;28;19943;-63
2022/09/18 14:25:03;;;;;;;;;;;;;;;;;;5075460;28;19981;-64
2022/09/18 14:27:29;;;;;;;;;;;;;;;;;;5077709;28;20019;-64
2022/09/18 14:29:54;;;;;;;;;;;;;;;;;;5080144;28;19916;-64
2022/09/18 14:32:19;;;;;;;;;;;;;;;;;;5076860;28;19916;-64
2022/09/18 14:34:44;;;;;;;;;;;;;;;;;;5082457;28;19916;-64
2022/09/18 14:37:10;;;;;;;;;;;;;;;;;;5051279;28;19916;-63
2022/09/18 14:39:35;;;;;;;;;;;;;;;;;;5071442;28;20404;-63
2022/09/18 14:42:00;;;;;;;;;;;;;;;;;;5080098;28;20368;-63
2022/09/18 14:44:26;;;;;;;;;;;;;;;;;;5072192;28;19996;-63
2022/09/18 14:46:51;;;;;;;;;;;;;;;;;;5080913;28;20712;-63
2022/09/18 14:49:17;;;;;;;;;;;;;;;;;;5072330;28;19916;-63
2022/09/18 14:51:42;;;;;;;;;;;;;;;;;;5074314;28;19920;-63
2022/09/18 14:54:07;;;;;;;;;;;;;;;;;;5080806;28;19923;-63
2022/09/18 14:56:32;;;;;;;;;;;;;;;;;;5074266;28;19920;-63
2022/09/18 14:58:57;;;;;;;;;;;;;;;;;;5084164;28;20033;-63
2022/09/18 15:01:23;;;;;;;;;;;;;;;;;;5072581;28;20296;-63
2022/09/18 15:03:48;;;;;;;;;;;;;;;;;;5056819;28;19916;-63
2022/09/18 15:06:13;;;;;;;;;;;;;;;;;;5081009;28;20005;-62
2022/09/18 15:08:38;;;;;;;;;;;;;;;;;;5075091;28;20392;-62
2022/09/18 15:11:03;;;;;;;;;;;;;;;;;;5081147;28;19923;-62
2022/09/18 15:13:29;;;;;;;;;;;;;;;;;;5075402;28;19969;-63
2022/09/18 15:15:55;;;;;;;;;;;;;;;;;;5057626;28;19941;-64
2022/09/18 15:18:22;;;;;;;;;;;;;;;;;;5080958;28;20023;-62
2022/09/18 15:20:49;;;;;;;;;;;;;;;;;;5074801;28;19923;-63
2022/09/18 15:23:14;;;;;;;;;;;;;;;;;;5080720;28;19950;-64
2022/09/18 15:25:39;;;;;;;;;;;;;;;;;;5061239;28;19916;-64
2022/09/18 15:28:04;;;;;;;;;;;;;;;;;;5074503;28;19939;-64
2022/09/18 15:30:30;;;;;;;;;;;;;;;;;;5080580;28;20015;-64
2022/09/18 15:32:55;;;;;;;;;;;;;;;;;;5075084;28;19923;-64
2022/09/18 15:35:20;;;;;;;;;;;;;;;;;;5078968;28;20347;-63
2022/09/18 15:37:45;;;;;;;;;;;;;;;;;;5072312;28;19955;-62
2022/09/18 15:40:10;;;;;;;;;;;;;;;;;;5055011;28;20275;-63
2022/09/18 15:42:36;;;;;;;;;;;;;;;;;;5079344;28;20253;-63
2022/09/18 15:45:01;;;;;;;;;;;;;;;;;;5072109;28;20479;-63
2022/09/18 15:47:36;;;;;;;;;;;;;;;;;;5080457;28;20011;-63
2022/09/18 15:50:01;;;;;;;;;;;;;;;;;;5076619;28;19969;-63
2022/09/18 15:52:27;;;;;;;;;;;;;;;;;;5072309;28;19920;-62
2022/09/18 15:54:52;;;;;;;;;;;;;;;;;;5079886;28;19973;-62
2022/09/18 15:57:17;;;;;;;;;;;;;;;;;;5072730;28;20274;-62
2022/09/18 15:59:43;;;;;;;;;;;;;;;;;;5069734;28;20392;-63
2022/09/18 16:02:09;;;;;;;;;;;;;;;;;;5078007;28;19924;-63
2022/09/18 16:04:34;;;;;;;;;;;;;;;;;;5070482;28;19971;-64
2022/09/18 16:07:00;;;;;;;;;;;;;;;;;;5078108;28;19916;-63
2022/09/18 16:09:25;;;;;;;;;;;;;;;;;;5073876;28;19923;-63
2022/09/18 16:11:51;;;;;;;;;;;;;;;;;;5071416;28;19916;-63
2022/09/18 16:14:16;;;;;;;;;;;;;;;;;;5076892;28;20323;-63
2022/09/18 16:16:42;;;;;;;;;;;;;;;;;;5069944;28;19977;-64
2022/09/18 16:19:07;;;;;;;;;;;;;;;;;;5080461;28;19958;-64
2022/09/18 16:21:32;;;;;;;;;;;;;;;;;;5073367;28;20011;-63
2022/09/18 16:23:59;;;;;;;;;;;;;;;;;;5072520;28;19916;-62
2022/09/18 16:26:25;;;;;;;;;;;;;;;;;;5080140;28;19918;-64
2022/09/18 16:28:50;;;;;;;;;;;;;;;;;;5072856;28;19916;-63
2022/09/18 16:31:16;;;;;;;;;;;;;;;;;;5076634;28;19923;-64
2022/09/18 16:33:41;;;;;;;;;;;;;;;;;;5063975;28;20399;-63
2022/09/18 16:36:09;;;;;;;;;;;;;;;;;;5068850;28;20343;-63
2022/09/18 16:38:34;;;;;;;;;;;;;;;;;;5073288;28;19920;-64
2022/09/18 16:40:59;;;;;;;;;;;;;;;;;;5051068;28;19916;-63
2022/09/18 16:43:25;;;;;;;;;;;;;;;;;;5073428;28;20336;-63